createdAt,value
2023-01-08T07:51:25.049Z,31.50
2023-01-08T07:53:52.510Z,31.57
2023-01-08T07:56:19.893Z,28.10
2023-01-08T07:58:47.311Z,28.80
2023-01-08T08:01:14.852Z,27.27
2023-01-08T08:03:42.706Z,29.23
2023-01-08T08:06:10.188Z,29.63
2023-01-08T08:08:37.558Z,27.00
2023-01-08T08:11:05.072Z,28.33
2023-01-08T08:13:32.489Z,29.07
2023-01-08T08:16:03.788Z,30.67
2023-01-08T08:18:31.305Z,31.67
2023-01-08T08:20:58.691Z,28.43
2023-01-08T08:23:26.065Z,32.03
2023-01-08T08:25:54.767Z,28.10
2023-01-08T08:28:22.196Z,29.30
2023-01-08T08:30:49.477Z,25.57
2023-01-08T08:33:17.000Z,27.97
2023-01-08T08:35:49.506Z,29.77
2023-01-08T08:38:16.999Z,30.83
2023-01-08T08:40:44.442Z,29.27
2023-01-08T08:43:11.971Z,30.23
2023-01-08T08:45:39.333Z,29.27
2023-01-08T08:48:07.331Z,28.57
2023-01-08T08:50:35.211Z,29.13
2023-01-08T08:53:03.723Z,31.17
2023-01-08T08:55:33.346Z,32.20
2023-01-08T08:58:08.258Z,32.93
2023-01-08T09:00:35.617Z,26.43
2023-01-08T09:03:02.989Z,30.87
2023-01-08T09:05:30.417Z,27.80
2023-01-08T09:07:57.794Z,31.23
2023-01-08T09:10:25.219Z,31.70
2023-01-08T09:12:54.000Z,32.77
2023-01-08T09:15:21.660Z,31.73
2023-01-08T09:17:58.499Z,27.23
2023-01-08T09:20:26.675Z,29.27
2023-01-08T09:22:54.489Z,31.57
2023-01-08T09:25:21.839Z,30.13
2023-01-08T09:27:49.148Z,32.30
2023-01-08T09:30:16.596Z,28.90
2023-01-08T09:32:43.923Z,28.87
2023-01-08T09:35:11.317Z,30.17
2023-01-08T09:37:38.604Z,28.97
2023-01-08T09:40:06.174Z,28.33
2023-01-08T09:42:34.313Z,29.73
2023-01-08T09:45:02.648Z,31.33
2023-01-08T09:47:31.998Z,27.90
2023-01-08T09:50:01.547Z,32.37
2023-01-08T09:52:28.867Z,30.93
2023-01-08T09:54:56.481Z,28.73
2023-01-08T09:57:24.017Z,27.43
2023-01-08T09:59:51.451Z,30.97
2023-01-08T10:02:20.402Z,31.93
2023-01-08T10:04:49.619Z,30.63
2023-01-08T10:07:24.591Z,32.37
2023-01-08T10:09:52.295Z,30.47
2023-01-08T10:12:37.878Z,29.37
2023-01-08T10:15:07.290Z,28.47
2023-01-08T10:17:49.003Z,29.33
2023-01-08T10:20:16.375Z,30.37
2023-01-08T10:22:44.645Z,30.10
2023-01-08T10:25:13.642Z,29.43
2023-01-08T10:27:48.664Z,32.23
2023-01-08T10:30:17.331Z,31.47
2023-01-08T10:32:54.272Z,32.67
2023-01-08T10:35:22.991Z,30.67
2023-01-08T10:37:50.593Z,29.10
2023-01-08T10:40:43.909Z,30.27
2023-01-08T10:43:16.739Z,32.27
2023-01-08T10:45:46.526Z,33.93
2023-01-08T10:48:17.986Z,37.80
2023-01-08T10:50:45.279Z,38.80
2023-01-08T10:53:23.962Z,35.07
2023-01-08T10:56:04.893Z,37.73
2023-01-08T10:58:41.866Z,37.37
2023-01-08T11:01:10.693Z,37.37
2023-01-08T11:03:38.781Z,42.33
2023-01-08T11:06:13.537Z,38.90
2023-01-08T11:08:41.303Z,40.60
2023-01-08T11:11:09.335Z,39.40
2023-01-08T11:13:36.773Z,41.93
2023-01-08T11:16:04.592Z,41.13
2023-01-08T11:18:32.347Z,44.43
2023-01-08T11:21:08.124Z,43.60
2023-01-08T11:23:35.562Z,41.50
2023-01-08T11:26:02.898Z,38.40
2023-01-08T11:28:32.704Z,39.30
2023-01-08T11:31:11.639Z,36.60
2023-01-08T11:33:40.942Z,38.63
2023-01-08T11:36:14.904Z,40.23
2023-01-08T11:38:42.512Z,38.10
2023-01-08T11:41:15.737Z,36.90
2023-01-08T11:44:26.839Z,38.60
2023-01-08T11:47:03.114Z,41.33
2023-01-08T11:49:37.876Z,39.70
2023-01-08T11:52:10.654Z,38.60
2023-01-08T11:54:49.693Z,40.63
2023-01-08T11:57:17.173Z,37.83
2023-01-08T11:59:44.441Z,41.77
2023-01-08T12:02:30.462Z,37.87
2023-01-08T12:05:00.737Z,37.87
2023-01-08T12:07:28.050Z,40.63
2023-01-08T12:10:01.979Z,40.40
2023-01-08T12:12:47.628Z,38.47
2023-01-08T12:15:14.929Z,39.07
2023-01-08T12:17:53.248Z,38.57
2023-01-08T12:20:31.043Z,39.33
2023-01-08T12:23:06.223Z,35.03
2023-01-08T12:25:49.299Z,37.10
2023-01-08T12:28:28.611Z,40.40
2023-01-08T12:31:14.918Z,38.55
2023-01-08T12:34:17.630Z,38.57
2023-01-08T12:36:47.734Z,37.90
2023-01-08T12:39:28.999Z,38.67
2023-01-08T12:41:59.653Z,37.67
2023-01-08T12:44:29.258Z,36.47
2023-01-08T12:46:58.532Z,37.70
2023-01-08T12:49:29.570Z,37.43
2023-01-08T12:52:12.916Z,38.93
2023-01-08T12:54:40.230Z,37.37
2023-01-08T12:57:26.601Z,37.50
2023-01-08T12:59:53.926Z,42.00
2023-01-08T13:02:24.743Z,39.43
2023-01-08T13:04:52.291Z,39.97
2023-01-08T13:07:21.859Z,38.37
2023-01-08T13:10:01.232Z,41.03
2023-01-08T13:12:36.260Z,41.47
2023-01-08T13:15:04.149Z,42.07
2023-01-08T13:17:31.695Z,44.63
2023-01-08T13:20:03.482Z,43.93
2023-01-08T13:22:32.740Z,42.80
2023-01-08T13:25:18.411Z,45.47
2023-01-08T13:27:46.758Z,49.50
2023-01-08T13:30:32.907Z,43.97
2023-01-08T13:33:00.548Z,48.87
2023-01-08T13:35:29.620Z,44.17
2023-01-08T13:38:12.679Z,43.97
2023-01-08T13:40:53.167Z,48.77
2023-01-08T13:43:31.255Z,48.33
2023-01-08T13:45:58.622Z,46.63
2023-01-08T13:48:27.325Z,46.23
2023-01-08T13:50:54.784Z,48.73
2023-01-08T13:53:22.647Z,47.60
2023-01-08T13:56:00.844Z,47.80
2023-01-08T13:58:34.243Z,48.90
2023-01-08T14:01:02.524Z,50.67
2023-01-08T14:03:35.704Z,49.93
2023-01-08T14:06:07.250Z,50.37
2023-01-08T14:08:34.912Z,46.83
2023-01-08T14:11:03.845Z,46.40
2023-01-08T14:13:34.197Z,49.47
2023-01-08T14:16:03.502Z,47.67
2023-01-08T14:18:30.917Z,53.37
2023-01-08T14:20:58.370Z,49.47
2023-01-08T14:23:29.624Z,51.47
2023-01-08T14:25:58.204Z,51.43
2023-01-08T14:28:25.455Z,53.50
2023-01-08T14:30:54.576Z,51.73
2023-01-08T14:33:24.773Z,54.73
2023-01-08T14:35:52.674Z,50.53
2023-01-08T14:38:20.002Z,57.70
2023-01-08T14:41:07.966Z,59.27
2023-01-08T14:43:39.708Z,54.43
2023-01-08T14:46:15.591Z,53.20
2023-01-08T14:48:44.618Z,53.80
2023-01-08T14:51:14.175Z,50.43
2023-01-08T14:53:56.918Z,51.93
2023-01-08T14:56:26.888Z,50.67
2023-01-08T14:58:55.490Z,50.87
2023-01-08T15:01:24.075Z,50.97
2023-01-08T15:03:52.066Z,50.37
2023-01-08T15:06:26.508Z,50.37
2023-01-08T15:08:54.025Z,53.83
2023-01-08T15:11:32.277Z,49.97
2023-01-08T15:13:59.827Z,52.73
2023-01-08T15:16:39.651Z,50.93
2023-01-08T15:19:08.122Z,53.47
2023-01-08T15:21:35.853Z,56.60
2023-01-08T15:24:04.832Z,52.73
2023-01-08T15:26:32.340Z,48.50
2023-01-08T15:28:59.627Z,48.07
2023-01-08T15:31:26.974Z,49.07
2023-01-08T15:33:54.467Z,51.93
2023-01-08T15:36:21.916Z,53.57
2023-01-08T15:38:49.863Z,52.27
2023-01-08T15:41:39.950Z,48.77
2023-01-08T15:44:07.580Z,54.47
2023-01-08T15:46:35.069Z,49.60
2023-01-08T15:49:02.313Z,50.40
2023-01-08T15:51:32.228Z,54.73
2023-01-08T15:53:59.900Z,50.57
2023-01-08T15:56:27.314Z,51.03
2023-01-08T15:58:54.664Z,52.47
2023-01-08T16:01:22.156Z,53.60
2023-01-08T16:03:50.099Z,51.70
2023-01-08T16:06:17.507Z,53.87
2023-01-08T16:08:46.251Z,51.67
2023-01-08T16:11:22.648Z,51.17
2023-01-08T16:13:49.987Z,53.20
2023-01-08T16:16:17.829Z,50.43
2023-01-08T16:18:45.123Z,50.00
2023-01-08T16:21:12.451Z,53.27
2023-01-08T16:23:40.624Z,54.33
2023-01-08T16:26:08.846Z,51.77
2023-01-08T16:28:36.338Z,55.43
2023-01-08T16:31:03.781Z,58.27
2023-01-08T16:33:31.210Z,54.93
2023-01-08T16:35:59.565Z,54.97
2023-01-08T16:38:27.013Z,51.27
2023-01-08T16:40:56.783Z,54.23
2023-01-08T16:43:28.240Z,53.90
2023-01-08T16:45:55.661Z,55.47
2023-01-08T16:48:23.779Z,56.33
2023-01-08T16:50:51.149Z,54.17
2023-01-08T16:53:18.969Z,54.50
2023-01-08T16:55:46.304Z,54.40
2023-01-08T16:58:13.633Z,52.50
2023-01-08T17:00:41.083Z,58.73
2023-01-08T17:03:08.441Z,52.80
2023-01-08T17:05:37.300Z,53.13
2023-01-08T17:08:04.806Z,51.37
2023-01-08T17:10:32.621Z,48.00
2023-01-08T17:12:59.971Z,48.63
2023-01-08T17:15:27.379Z,49.93
2023-01-08T17:17:55.352Z,47.20
2023-01-08T17:20:22.863Z,52.50
2023-01-08T17:22:50.182Z,56.27
2023-01-08T17:25:17.561Z,52.00
2023-01-08T17:27:44.938Z,52.60
2023-01-08T17:30:13.864Z,56.77
2023-01-08T17:32:41.313Z,54.90
2023-01-08T17:35:09.006Z,48.27
2023-01-08T17:37:36.482Z,50.83
2023-01-08T17:40:04.214Z,54.47
2023-01-08T17:42:31.986Z,52.93
2023-01-08T17:45:03.009Z,54.60
2023-01-08T17:47:31.716Z,49.73
2023-01-08T17:49:59.189Z,56.00
2023-01-08T17:52:26.565Z,54.57
2023-01-08T17:54:54.054Z,53.40
2023-01-08T17:57:21.897Z,52.10
2023-01-08T17:59:49.605Z,54.57
2023-01-08T18:02:17.795Z,52.27
2023-01-08T18:04:45.749Z,57.37
2023-01-08T18:07:13.490Z,54.87
2023-01-08T18:09:41.022Z,56.67
2023-01-08T18:12:08.657Z,50.77
2023-01-08T18:14:37.713Z,52.80
2023-01-08T18:17:05.645Z,51.07
2023-01-08T18:19:32.961Z,53.43
2023-01-08T18:22:00.854Z,57.37
2023-01-08T18:24:28.235Z,54.57
2023-01-08T18:26:55.603Z,53.90
2023-01-08T18:29:22.983Z,54.57
2023-01-08T18:31:50.310Z,51.97
2023-01-08T18:34:17.679Z,54.13
2023-01-08T18:36:45.049Z,54.27
2023-01-08T18:39:12.926Z,54.97
2023-01-08T18:41:58.966Z,52.77
2023-01-08T18:44:26.337Z,52.33
2023-01-08T18:46:54.499Z,51.93
2023-01-08T18:49:23.505Z,54.43
2023-01-08T18:51:51.074Z,53.13
2023-01-08T18:54:18.388Z,53.17
2023-01-08T18:56:46.573Z,56.23
2023-01-08T18:59:13.924Z,53.70
2023-01-08T19:01:41.637Z,61.47
2023-01-08T19:04:12.298Z,52.17
2023-01-08T19:06:39.601Z,52.20
2023-01-08T19:09:06.941Z,55.33
2023-01-08T19:11:34.232Z,56.67
2023-01-08T19:14:01.572Z,54.93
2023-01-08T19:16:28.914Z,57.80
2023-01-08T19:18:57.564Z,57.43
2023-01-08T19:21:24.923Z,55.43
2023-01-08T19:23:53.533Z,54.87
2023-01-08T19:26:20.953Z,57.07
2023-01-08T19:28:48.360Z,58.00
2023-01-08T19:31:17.172Z,60.13
2023-01-08T19:33:46.163Z,58.00
2023-01-08T19:36:16.021Z,59.23
2023-01-08T19:38:44.029Z,54.77
2023-01-08T19:41:30.190Z,58.00
2023-01-08T19:43:57.892Z,56.37
2023-01-08T19:46:25.599Z,60.00
2023-01-08T19:48:53.183Z,56.73
2023-01-08T19:51:20.675Z,60.63
2023-01-08T19:53:48.008Z,58.93
2023-01-08T19:56:15.496Z,56.93
2023-01-08T19:58:43.089Z,59.13
2023-01-08T20:01:10.743Z,59.03
2023-01-08T20:03:38.545Z,58.57
2023-01-08T20:06:07.117Z,62.60
2023-01-08T20:08:34.004Z,61.80
2023-01-08T20:11:08.490Z,58.60
2023-01-08T20:13:36.716Z,63.50
2023-01-08T20:16:08.319Z,60.67
2023-01-08T20:18:36.275Z,58.23
2023-01-08T20:21:11.201Z,62.90
2023-01-08T20:23:38.888Z,64.13
2023-01-08T20:26:07.554Z,62.80
2023-01-08T20:28:35.536Z,60.40
2023-01-08T20:31:06.820Z,64.73
2023-01-08T20:33:35.412Z,65.00
2023-01-08T20:36:07.019Z,69.00
2023-01-08T20:38:34.485Z,67.70
2023-01-08T20:41:01.836Z,68.23
2023-01-08T20:43:29.443Z,64.20
2023-01-08T20:45:56.806Z,67.07
2023-01-08T20:48:24.280Z,66.20
2023-01-08T20:50:55.598Z,66.67
2023-01-08T20:53:23.595Z,64.23
2023-01-08T20:55:51.521Z,66.83
2023-01-08T20:58:19.212Z,65.93
2023-01-08T21:00:46.507Z,66.93
2023-01-08T21:03:14.148Z,68.67
2023-01-08T21:05:41.481Z,68.37
2023-01-08T21:08:09.056Z,73.57
2023-01-08T21:10:36.537Z,65.17
2023-01-08T21:13:03.885Z,71.60
2023-01-08T21:15:31.385Z,73.13
2023-01-08T21:17:58.807Z,72.50
2023-01-08T21:20:26.154Z,73.43
2023-01-08T21:22:53.545Z,77.70
2023-01-08T21:25:20.842Z,76.53
2023-01-08T21:27:48.338Z,79.30
2023-01-08T21:30:15.740Z,76.17
2023-01-08T21:32:43.055Z,73.43
2023-01-08T21:35:10.359Z,70.87
2023-01-08T21:37:37.697Z,74.57
2023-01-08T21:40:05.813Z,72.87
2023-01-08T21:42:51.597Z,70.97
2023-01-08T21:45:24.819Z,71.00
2023-01-08T21:47:52.807Z,72.70
2023-01-08T21:50:20.245Z,72.67
2023-01-08T21:53:06.195Z,73.77
2023-01-08T21:55:36.083Z,74.17
2023-01-08T21:58:21.916Z,71.13
2023-01-08T22:00:49.304Z,70.50
2023-01-08T22:03:16.695Z,75.07
2023-01-08T22:05:44.035Z,75.17
2023-01-08T22:08:18.360Z,74.93
2023-01-08T22:10:45.751Z,71.40
2023-01-08T22:13:13.087Z,73.50
2023-01-08T22:15:40.442Z,68.60
2023-01-08T22:18:07.737Z,73.30
2023-01-08T22:20:35.021Z,68.60
2023-01-08T22:23:02.392Z,77.17
2023-01-08T22:25:29.988Z,74.70
2023-01-08T22:27:57.301Z,73.30
2023-01-08T22:30:24.660Z,73.53
2023-01-08T22:32:51.923Z,72.70
2023-01-08T22:35:19.284Z,70.53
2023-01-08T22:37:47.222Z,70.30
2023-01-08T22:40:14.641Z,71.27
2023-01-08T22:42:41.986Z,72.10
2023-01-08T22:45:09.589Z,75.93
2023-01-08T22:47:36.874Z,68.23
2023-01-08T22:50:04.457Z,73.43
2023-01-08T22:52:31.779Z,74.13
2023-01-08T22:54:59.453Z,70.60
2023-01-08T22:57:29.294Z,76.33
2023-01-08T22:59:56.634Z,72.30
2023-01-08T23:02:26.801Z,74.07
2023-01-08T23:04:54.663Z,75.63
2023-01-08T23:07:21.948Z,74.93
2023-01-08T23:09:49.305Z,75.07
2023-01-08T23:12:16.572Z,73.90
2023-01-08T23:14:43.850Z,72.93
2023-01-08T23:17:11.169Z,77.47
2023-01-08T23:19:38.506Z,80.23
2023-01-08T23:22:05.877Z,77.13
2023-01-08T23:24:33.206Z,79.93
2023-01-08T23:27:00.578Z,75.27
2023-01-08T23:29:29.638Z,75.70
2023-01-08T23:31:57.814Z,77.57
2023-01-08T23:34:25.760Z,77.00
2023-01-08T23:36:53.178Z,80.03
2023-01-08T23:39:21.358Z,79.20
2023-01-08T23:41:48.643Z,75.07
2023-01-08T23:44:16.849Z,77.60
2023-01-08T23:46:44.244Z,78.70
2023-01-08T23:49:11.604Z,77.13
2023-01-08T23:51:42.151Z,76.03
2023-01-08T23:54:10.225Z,73.60
2023-01-08T23:56:37.858Z,75.20
2023-01-08T23:59:05.255Z,75.57
